Naxos Star — SX2840 — position and weather

sailwx.info

Track history (hours):
 
Tides and Currents Weather Stations Pressure Air Temp Water Temp Dewpoint Dewpoint Depression Visibility Wind Speed Wind Dir Waves Ship Positions

Naxos Star

Last reported at 2018-May-20 03:03 UTC. Time now 2018-May-20 09:54 UTC.
Position N 36°59' E 025°16'.

Length 41 m; draft 2.2 m.

Type: Passenger vessel. MMSI: 237018200.

Date/timePositionNaut miles runAvg speedWind from/ knotsBaromVisibWave heightAir tempDewpointWater temp
2018-May-20 03:03N 36°59' E 025°16'116.3
2018-May-20 03:01N 37°00' E 025°16'2 4.0
2018-May-20 02:30N 37°02' E 025°16'3 5.9
2018-May-20 02:00N 37°04' E 025°18'4 8.1
2018-May-20 01:30N 37°06' E 025°22'0 0.0
2018-May-20 01:00N 37°06' E 025°22'0 0.0
2018-May-20 00:31N 37°06' E 025°22'0 0.0
2018-May-20 00:01N 37°06' E 025°22'0 0.0
2018-May-19 23:31N 37°06' E 025°22'0 0.0
2018-May-19 23:00N 37°06' E 025°22'0 0.0
2018-May-19 22:30N 37°06' E 025°22'0 0.0
2018-May-19 22:00N 37°06' E 025°22'0 0.0
2018-May-19 21:31N 37°06' E 025°22'0 0.0
2018-May-19 21:00N 37°06' E 025°22'0 0.0
2018-May-19 20:31N 37°06' E 025°22'0 0.0
2018-May-19 20:00N 37°06' E 025°22'0 0.0
2018-May-19 19:31N 37°06' E 025°22'0 0.0
2018-May-19 19:00N 37°06' E 025°22'0 0.0
2018-May-19 18:30N 37°06' E 025°22'0 0.0
2018-May-19 18:01N 37°06' E 025°22'0 0.0
2018-May-19 17:30N 37°06' E 025°22'0 0.0
2018-May-19 17:00N 37°06' E 025°22'0 0.0
2018-May-19 16:30N 37°06' E 025°22'1 1.8
2018-May-19 16:00N 37°07' E 025°22'6 7.5
2018-May-19 15:13N 37°09' E 025°15'316.0
2018-May-19 15:00N 37°12' E 025°15'816.0
2018-May-19 14:31N 37°20' E 025°17'7 6.8
2018-May-19 13:27N 37°27' E 025°20'0 0.0
2018-May-19 12:16N 37°27' E 025°20'0 0.0
2018-May-19 11:44N 37°27' E 025°20'0 0.0
2018-May-19 11:19N 37°27' E 025°20'0 0.0
2018-May-19 10:52N 37°27' E 025°20'2 5.9
2018-May-19 10:30N 37°26' E 025°17'2 4.7
2018-May-19 09:59N 37°24' E 025°16'0 0.0
2018-May-19 09:30N 37°24' E 025°16'0 0.0
2018-May-19 09:00N 37°24' E 025°16'0 0.0
2018-May-19 08:30N 37°24' E 025°16'0 0.0
2018-May-19 08:00N 37°24' E 025°16'1 2.6
2018-May-19 07:30N 37°23' E 025°16'816.3
2018-May-19 07:00N 37°14' E 025°15'7 9.4
2018-May-19 06:17N 37°08' E 025°14'413.3
2018-May-19 06:00N 37°09' E 025°19'4 8.0
2018-May-19 05:30N 37°06' E 025°22'0 0.0
2018-May-19 05:00N 37°06' E 025°22'0 0.0
2018-May-19 04:30N 37°06' E 025°22'0 0.0
2018-May-19 04:00N 37°06' E 025°22'0 0.0
2018-May-19 03:30N 37°06' E 025°22'0 0.0
2018-May-19 03:00N 37°06' E 025°22'0 0.0
2018-May-19 02:30N 37°06' E 025°22'0 0.0
2018-May-19 02:00N 37°06' E 025°22'0 0.0
2018-May-19 01:30N 37°06' E 025°22'0 0.0
2018-May-19 01:00N 37°06' E 025°22'0 0.0
2018-May-19 00:30N 37°06' E 025°22'0 0.0
2018-May-19 00:00N 37°06' E 025°22'0 0.0
2018-May-18 23:30N 37°06' E 025°22'0 0.0
2018-May-18 23:00N 37°06' E 025°22'0 0.0
2018-May-18 22:30N 37°06' E 025°22'0 0.0
2018-May-18 22:00N 37°06' E 025°22'0 0.0
2018-May-18 21:30N 37°06' E 025°22'0 0.0
2018-May-18 21:00N 37°06' E 025°22'0 0.0
2018-May-18 20:30N 37°06' E 025°22'0 0.0
2018-May-18 20:00N 37°06' E 025°22'0 0.0
2018-May-18 19:30N 37°06' E 025°22'0 0.0
2018-May-18 19:00N 37°06' E 025°22'0 0.0
2018-May-18 18:30N 37°06' E 025°22'0 0.0
2018-May-18 18:00N 37°06' E 025°22'0 0.0
2018-May-18 17:30N 37°06' E 025°22'0 0.0
2018-May-18 17:00N 37°06' E 025°22'0 0.0
2018-May-18 16:30N 37°06' E 025°22'0 0.0
2018-May-18 16:00N 37°06' E 025°22'0 0.0
2018-May-18 15:30N 37°06' E 025°22'0 0.0
2018-May-18 15:00N 37°06' E 025°22'0 0.0
2018-May-18 14:30N 37°06' E 025°22'0 0.0
2018-May-18 14:00N 37°06' E 025°22'0 0.0
2018-May-18 13:30N 37°06' E 025°22'0 0.0
2018-May-18 13:00N 37°06' E 025°22'0 0.0
2018-May-18 12:30N 37°06' E 025°22'0 0.0
2018-May-18 12:00N 37°06' E 025°22'0 0.0
2018-May-18 11:30N 37°06' E 025°22'0 0.0
2018-May-18 11:00N 37°06' E 025°22'0 0.0
2018-May-18 10:30N 37°06' E 025°22'0 0.0
2018-May-18 10:00N 37°06' E 025°22'0 0.0
2018-May-18 09:30N 37°06' E 025°22'0 0.0
2018-May-18 09:00N 37°06' E 025°22'0 0.0
2018-May-18 08:30N 37°06' E 025°22'0 0.0
2018-May-18 08:00N 37°06' E 025°22'0 0.0
2018-May-18 07:30N 37°06' E 025°22'0 0.0
2018-May-18 07:00N 37°06' E 025°22'0 0.0
2018-May-18 06:30N 37°06' E 025°22'0 0.0
2018-May-18 06:00N 37°06' E 025°22'0 0.0
2018-May-18 05:30N 37°06' E 025°22'0 0.0
2018-May-18 05:00N 37°06' E 025°22'0 0.0
2018-May-18 04:30N 37°06' E 025°22'0 0.0
2018-May-18 04:00N 37°06' E 025°22'0 0.0
2018-May-18 03:30N 37°06' E 025°22'0 0.0
2018-May-18 03:00N 37°06' E 025°22'0 0.0
2018-May-18 02:30N 37°06' E 025°22'0 0.0
2018-May-18 02:00N 37°06' E 025°22'0 0.0
2018-May-18 01:30N 37°06' E 025°22'0 0.0
2018-May-18 01:00N 37°06' E 025°22'0 0.0
2018-May-18 00:30N 37°06' E 025°22'0 0.0
2018-May-18 00:00N 37°06' E 025°22'0 0.0
2018-May-17 23:30N 37°06' E 025°22'0 0.0
2018-May-17 23:00N 37°06' E 025°22'0 0.0
2018-May-17 22:30N 37°06' E 025°22'0 0.0
2018-May-17 22:00N 37°06' E 025°22'0 0.0
2018-May-17 21:30N 37°06' E 025°22'0 0.0
2018-May-17 21:00N 37°06' E 025°22'0 0.0
2018-May-17 20:30N 37°06' E 025°22'0 0.0
2018-May-17 20:00N 37°06' E 025°22'0 0.0
2018-May-17 19:30N 37°06' E 025°22'0 0.0
2018-May-17 19:00N 37°06' E 025°22'0 0.0
2018-May-17 18:30N 37°06' E 025°22'0 0.0
2018-May-17 18:00N 37°06' E 025°22'0 0.0
2018-May-17 17:30N 37°06' E 025°22'0 0.0
2018-May-17 17:00N 37°06' E 025°22'0 0.0
2018-May-17 16:30N 37°06' E 025°22'0 0.1
2018-May-17 16:00N 37°06' E 025°22'612.6
2018-May-17 15:30N 37°09' E 025°15'2 4.5
2018-May-17 15:00N 37°11' E 025°15'816.3
2018-May-17 14:30N 37°19' E 025°16'815.6
2018-May-17 13:59N 37°27' E 025°19'0 0.1
2018-May-17 10:41N 37°27' E 025°20'213.8
2018-May-17 10:30N 37°26' E 025°17'2 4.2
2018-May-17 10:00N 37°24' E 025°16'0 0.0
2018-May-17 09:30N 37°24' E 025°16'0 0.0
2018-May-17 09:00N 37°24' E 025°16'0 0.0
2018-May-17 08:30N 37°24' E 025°16'0 0.0
2018-May-17 08:00N 37°24' E 025°16'1 1.5
2018-May-17 07:30N 37°23' E 025°16'816.0
2018-May-17 07:00N 37°15' E 025°15'710.2
2018-May-17 06:16N 37°08' E 025°14'413.6
2018-May-17 06:00N 37°09' E 025°18'4 8.2
2018-May-17 05:30N 37°06' E 025°22'0 0.0
2018-May-17 05:01N 37°06' E 025°22'0 0.0
2018-May-17 04:31N 37°06' E 025°22'0 0.0
2018-May-17 04:01N 37°06' E 025°22'0 0.0
2018-May-17 03:30N 37°06' E 025°22'0 0.0
2018-May-17 03:01N 37°06' E 025°22'0 0.0
2018-May-17 02:30N 37°06' E 025°22'0 0.0
2018-May-17 02:01N 37°06' E 025°22'0 0.0
2018-May-17 01:31N 37°06' E 025°22'0 0.0
2018-May-17 01:00N 37°06' E 025°22'0 0.0
2018-May-17 00:31N 37°06' E 025°22'0 0.0
2018-May-17 00:00N 37°06' E 025°22'0 0.0
2018-May-16 23:31N 37°06' E 025°22'0 0.0
2018-May-16 23:00N 37°06' E 025°22'0 0.0
2018-May-16 22:31N 37°06' E 025°22'0 0.0
2018-May-16 22:01N 37°06' E 025°22'0 0.0
2018-May-16 21:31N 37°06' E 025°22'0 0.0
2018-May-16 21:00N 37°06' E 025°22'0 0.0
2018-May-16 20:31N 37°06' E 025°22'0 0.0
2018-May-16 20:00N 37°06' E 025°22'0 0.0
2018-May-16 19:30N 37°06' E 025°22'0 0.0
2018-May-16 19:00N 37°06' E 025°22'0 0.0
2018-May-16 18:31N 37°06' E 025°22'0 0.0
2018-May-16 18:00N 37°06' E 025°22'0 0.0
2018-May-16 17:31N 37°06' E 025°22'2 4.8
2018-May-16 17:00N 37°05' E 025°20'510.6
2018-May-16 16:30N 37°01' E 025°16'2 0.2
2018-May-16 05:18N 36°59' E 025°17'3 9.6
2018-May-16 05:00N 37°02' E 025°16'713.9
2018-May-16 04:30N 37°06' E 025°22'0 0.2
2018-May-16 04:00N 37°06' E 025°22'0 0.0
2018-May-16 03:30N 37°06' E 025°22'0 0.0
2018-May-16 03:00N 37°06' E 025°22'0 0.0
2018-May-16 02:30N 37°06' E 025°22'0 0.0
2018-May-16 02:00N 37°06' E 025°22'0 0.0
2018-May-16 01:30N 37°06' E 025°22'0 0.0
2018-May-16 01:00N 37°06' E 025°22'0 0.0
2018-May-16 00:30N 37°06' E 025°22'0 0.0
2018-May-16 00:00N 37°06' E 025°22'0 0.0
2018-May-15 23:30N 37°06' E 025°22'0 0.0
2018-May-15 23:00N 37°06' E 025°22'0 0.0
2018-May-15 22:30N 37°06' E 025°22'0 0.0
2018-May-15 22:00N 37°06' E 025°22'0 0.0
2018-May-15 21:30N 37°06' E 025°22'0 0.0
2018-May-15 21:00N 37°06' E 025°22'0 0.0
2018-May-15 20:30N 37°06' E 025°22'0 0.0
2018-May-15 20:00N 37°06' E 025°22'0 0.0
2018-May-15 19:30N 37°06' E 025°22'0 0.0
2018-May-15 19:00N 37°06' E 025°22'0 0.0
2018-May-15 18:30N 37°06' E 025°22'0 0.0
2018-May-15 18:00N 37°06' E 025°22'0 0.0
2018-May-15 17:30N 37°06' E 025°22'0 0.0
2018-May-15 17:00N 37°06' E 025°22'0 0.0
2018-May-15 16:30N 37°06' E 025°22'2 4.3
2018-May-15 16:00N 37°08' E 025°20'5 7.2
2018-May-15 15:20N 37°09' E 025°15'516.3
2018-May-15 15:00N 37°14' E 025°15'816.5
2018-May-15 14:30N 37°22' E 025°17'5 1.4
2018-May-15 10:47N 37°27' E 025°20'3 9.8
2018-May-15 10:30N 37°25' E 025°17'2 3.4
2018-May-15 10:00N 37°24' E 025°16'0 0.0
2018-May-15 09:29N 37°24' E 025°16'0 0.0
2018-May-15 09:00N 37°24' E 025°16'0 0.0
2018-May-15 08:30N 37°24' E 025°16'0 0.0
2018-May-15 07:59N 37°24' E 025°16'1 1.8
2018-May-15 07:31N 37°23' E 025°16'816.3
2018-May-15 07:01N 37°15' E 025°15'710.1
2018-May-15 06:18N 37°08' E 025°14'413.2
2018-May-15 06:00N 37°09' E 025°19'3 7.0
2018-May-15 05:31N 37°06' E 025°22'713.4
2018-May-15 05:00N 37°02' E 025°16'2 3.9
2018-May-15 04:30N 37°03' E 025°18'510.2
2018-May-15 04:00N 37°06' E 025°22'0 0.0
2018-May-15 03:30N 37°06' E 025°22'0 0.0
2018-May-15 03:00N 37°06' E 025°22'0 0.0
2018-May-15 02:30N 37°06' E 025°22'0 0.0
2018-May-15 02:00N 37°06' E 025°22'0 0.0
2018-May-15 01:30N 37°06' E 025°22'0 0.0
2018-May-15 01:00N 37°06' E 025°22'0 0.0
2018-May-15 00:30N 37°06' E 025°22'0 0.0
2018-May-15 00:00N 37°06' E 025°22'0 0.0
2018-May-14 23:30N 37°06' E 025°22'0 0.0
2018-May-14 23:00N 37°06' E 025°22'0 0.0
2018-May-14 22:30N 37°06' E 025°22'0 0.0
2018-May-14 22:00N 37°06' E 025°22'0 0.0
2018-May-14 21:30N 37°06' E 025°22'0 0.0
2018-May-14 21:00N 37°06' E 025°22'0 0.0
2018-May-14 20:30N 37°06' E 025°22'0 0.0
2018-May-14 20:00N 37°06' E 025°22'0 0.0
2018-May-14 19:30N 37°06' E 025°22'0 0.0
2018-May-14 19:00N 37°06' E 025°22'0 0.0
2018-May-14 18:30N 37°06' E 025°22'0 0.0
2018-May-14 18:00N 37°06' E 025°22'0 0.0
2018-May-14 17:30N 37°06' E 025°22'0 0.0
2018-May-14 17:00N 37°06' E 025°22'0 0.0
2018-May-14 16:30N 37°06' E 025°22'0 0.0
2018-May-14 16:00N 37°06' E 025°22'0 0.0
2018-May-14 15:30N 37°06' E 025°22'0 0.0
2018-May-14 15:00N 37°06' E 025°22'0 0.0
2018-May-14 14:30N 37°06' E 025°22'0 0.0
2018-May-14 14:00N 37°06' E 025°22'0 0.0
2018-May-14 13:30N 37°06' E 025°22'0 0.0
2018-May-14 13:00N 37°06' E 025°22'0 0.0
2018-May-14 12:30N 37°06' E 025°22'0 0.0
2018-May-14 12:00N 37°06' E 025°22'0 0.0
2018-May-14 11:30N 37°06' E 025°22'0 0.0
2018-May-14 11:00N 37°06' E 025°22'0 0.0
2018-May-14 10:30N 37°06' E 025°22'0 0.0
2018-May-14 10:00N 37°06' E 025°22'0 0.0
2018-May-14 09:30N 37°06' E 025°22'0 0.0
2018-May-14 09:00N 37°06' E 025°22'0 0.0
2018-May-14 08:30N 37°06' E 025°22'0 0.0
2018-May-14 08:00N 37°06' E 025°22'0 0.0
2018-May-14 07:30N 37°06' E 025°22'0 0.0
2018-May-14 07:00N 37°06' E 025°22'0 0.0
2018-May-14 06:30N 37°06' E 025°22'0 0.0
2018-May-14 06:00N 37°06' E 025°22'0 0.0
2018-May-14 05:30N 37°06' E 025°22'0 0.0
2018-May-14 05:00N 37°06' E 025°22'0 0.0
2018-May-14 04:30N 37°06' E 025°22'0 0.0
2018-May-14 04:00N 37°06' E 025°22'0 0.0
2018-May-14 03:30N 37°06' E 025°22'0 0.0
2018-May-14 03:00N 37°06' E 025°22'0 0.0
2018-May-14 02:30N 37°06' E 025°22'0 0.0
2018-May-14 02:00N 37°06' E 025°22'0 0.0
2018-May-14 01:30N 37°06' E 025°22'0 0.0
2018-May-14 01:00N 37°06' E 025°22'0 0.0
2018-May-14 00:30N 37°06' E 025°22'2 3.6
2018-May-14 00:00N 37°06' E 025°20'510.8
2018-May-13 23:31N 37°02' E 025°16'3 0.1
2018-May-13 03:10N 36°59' E 025°16'216.4
2018-May-13 03:01N 37°02' E 025°16'5 9.0
2018-May-13 02:30N 37°05' E 025°20'3 5.3
2018-May-13 02:00N 37°06' E 025°22'0 0.0
2018-May-13 01:30N 37°06' E 025°22'0 0.0
2018-May-13 01:00N 37°06' E 025°22'0 0.0
2018-May-13 00:30N 37°06' E 025°22'0 0.0
2018-May-13 00:00N 37°06' E 025°22'0 0.0
2018-May-12 23:30N 37°06' E 025°22'0 0.0
2018-May-12 23:00N 37°06' E 025°22'0 0.0
2018-May-12 22:30N 37°06' E 025°22'0 0.0
2018-May-12 22:00N 37°06' E 025°22'0 0.0
2018-May-12 21:30N 37°06' E 025°22'0 0.0
2018-May-12 21:00N 37°06' E 025°22'0 0.0
2018-May-12 20:30N 37°06' E 025°22'0 0.0
2018-May-12 20:00N 37°06' E 025°22'0 0.0
2018-May-12 19:30N 37°06' E 025°22'0 0.0
2018-May-12 19:00N 37°06' E 025°22'0 0.0
2018-May-12 18:30N 37°06' E 025°22'0 0.0
2018-May-12 18:00N 37°06' E 025°22'0 0.0
2018-May-12 17:30N 37°06' E 025°22'0 0.0
2018-May-12 17:00N 37°06' E 025°22'0 0.0
2018-May-12 16:30N 37°06' E 025°22'612.0
2018-May-12 16:00N 37°09' E 025°16'1 2.7
2018-May-12 15:30N 37°09' E 025°14'816.5
2018-May-12 15:00N 37°18' E 025°14'816.0
2018-May-12 14:30N 37°25' E 025°18'2 0.4
2018-May-12 07:54N 37°23' E 025°16'615.3
2018-May-12 07:29N 37°17' E 025°15'715.3
2018-May-12 07:00N 37°10' E 025°15'1 2.6
2018-May-12 06:30N 37°08' E 025°15'612.2
2018-May-12 06:01N 37°06' E 025°22'0 0.7
2018-May-12 05:31N 37°06' E 025°22'0 0.0
2018-May-12 05:01N 37°06' E 025°22'0 0.0
2018-May-12 04:31N 37°06' E 025°22'0 0.0
2018-May-12 04:01N 37°06' E 025°22'0 0.0
2018-May-12 03:30N 37°06' E 025°22'0 0.0
2018-May-12 03:01N 37°06' E 025°22'0 0.0
2018-May-12 02:30N 37°06' E 025°22'0 0.0
2018-May-12 02:00N 37°06' E 025°22'0 0.0
2018-May-12 01:30N 37°06' E 025°22'0 0.0
2018-May-12 01:00N 37°06' E 025°22'0 0.0
2018-May-12 00:30N 37°06' E 025°22'0 0.0
2018-May-12 00:00N 37°06' E 025°22'0 0.0
2018-May-11 23:31N 37°06' E 025°22'0 0.0
2018-May-11 23:00N 37°06' E 025°22'0 0.0
2018-May-11 22:29N 37°06' E 025°22'0 0.0
2018-May-11 22:01N 37°06' E 025°22'0 0.0
2018-May-11 21:30N 37°06' E 025°22'0 0.0
2018-May-11 21:01N 37°06' E 025°22'0 0.0
2018-May-11 20:31N 37°06' E 025°22'0 0.0
2018-May-11 20:00N 37°06' E 025°22'0 0.0
2018-May-11 19:31N 37°06' E 025°22'0 0.0
2018-May-11 19:01N 37°06' E 025°22'0 0.0
2018-May-11 18:31N 37°06' E 025°22'0 0.0
2018-May-11 18:00N 37°06' E 025°22'0 0.0
2018-May-11 17:31N 37°06' E 025°22'0 0.0
2018-May-11 17:00N 37°06' E 025°22'0 0.0
2018-May-11 16:30N 37°06' E 025°22'1 2.1
2018-May-11 16:00N 37°07' E 025°21'6 7.8
2018-May-11 15:17N 37°09' E 025°14'416.4
2018-May-11 15:00N 37°13' E 025°14'816.0
2018-May-11 14:30N 37°21' E 025°15'714.2
2018-May-11 14:00N 37°27' E 025°19'0 0.0
2018-May-11 10:14N 37°27' E 025°20'414.7
2018-May-11 09:58N 37°24' E 025°16'0 1.0
2018-May-11 09:30N 37°24' E 025°16'0 0.0
2018-May-11 09:00N 37°24' E 025°16'0 0.0
2018-May-11 08:30N 37°24' E 025°16'0 0.0
2018-May-11 08:00N 37°24' E 025°16'0 0.0
2018-May-11 07:31N 37°24' E 025°16'5 9.3
2018-May-11 07:01N 37°19' E 025°17'816.4
2018-May-11 06:31N 37°11' E 025°20'611.0
2018-May-11 06:00N 37°06' E 025°22'3 5.9
2018-May-11 05:30N 37°05' E 025°19'4 7.7
2018-May-11 04:58N 37°02' E 025°16'2 3.6
2018-May-11 04:31N 37°03' E 025°17'510.7
2018-May-11 04:00N 37°06' E 025°22'0 0.0
2018-May-11 03:30N 37°06' E 025°22'0 0.0
2018-May-11 03:00N 37°06' E 025°22'0 0.0
2018-May-11 02:30N 37°06' E 025°22'0 0.0
2018-May-11 02:00N 37°06' E 025°22'0 0.0
2018-May-11 01:30N 37°06' E 025°22'0 0.0
2018-May-11 01:00N 37°06' E 025°22'0 0.0
2018-May-11 00:30N 37°06' E 025°22'0 0.0
2018-May-11 00:00N 37°06' E 025°22'0 0.0
2018-May-10 23:30N 37°06' E 025°22'0 0.0
2018-May-10 23:00N 37°06' E 025°22'0 0.0
2018-May-10 22:30N 37°06' E 025°22'0 0.0
2018-May-10 22:00N 37°06' E 025°22'0 0.0
2018-May-10 21:30N 37°06' E 025°22'0 0.0
2018-May-10 21:00N 37°06' E 025°22'0 0.0
2018-May-10 20:30N 37°06' E 025°22'0 0.0
2018-May-10 20:00N 37°06' E 025°22'0 0.0
2018-May-10 19:30N 37°06' E 025°22'0 0.0
2018-May-10 19:00N 37°06' E 025°22'0 0.0
2018-May-10 18:15N 37°06' E 025°22'0 0.0
2018-May-10 18:00N 37°06' E 025°22'0 0.0
2018-May-10 17:30N 37°06' E 025°22'0 0.0
2018-May-10 17:00N 37°06' E 025°22'0 0.0
2018-May-10 16:30N 37°06' E 025°22'1 2.2
2018-May-10 16:01N 37°07' E 025°21'6 8.5
2018-May-10 15:20N 37°08' E 025°14'516.1
2018-May-10 15:00N 37°13' E 025°16'816.4
2018-May-10 14:30N 37°21' E 025°17'6 4.1
2018-May-10 12:56N 37°27' E 025°20'0 0.0
2018-May-10 11:50N 37°27' E 025°20'0 0.0
2018-May-10 10:53N 37°27' E 025°20'411.5
2018-May-10 10:30N 37°24' E 025°16'0 0.0
2018-May-10 10:00N 37°24' E 025°16'0 0.0
2018-May-10 09:28N 37°24' E 025°16'0 0.0
2018-May-10 09:00N 37°24' E 025°16'0 0.0
2018-May-10 08:30N 37°24' E 025°16'0 0.0
2018-May-10 08:00N 37°24' E 025°16'1 2.6
2018-May-10 07:30N 37°23' E 025°16'816.3
2018-May-10 07:00N 37°14' E 025°15'7 9.6
2018-May-10 06:18N 37°08' E 025°14'413.0
2018-May-10 06:00N 37°09' E 025°19'4 7.3
2018-May-10 05:30N 37°06' E 025°22'0 0.0
2018-May-10 05:00N 37°06' E 025°22'0 0.0
2018-May-10 04:30N 37°06' E 025°22'0 0.0
2018-May-10 04:00N 37°06' E 025°22'0 0.0
2018-May-10 03:30N 37°06' E 025°22'  
Track history (hours):
 
Tides and Currents Weather Stations Pressure Air Temp Water Temp Dewpoint Dewpoint Depression Visibility Wind Speed Wind Dir Waves Ship Positions

Naxos Star

Last reported at 2018-May-20 03:03 UTC. Time now 2018-May-20 09:54 UTC.
Position N 36°59' E 025°16'.

Length 41 m; draft 2.2 m.

Type: Passenger vessel. MMSI: 237018200.

Date/timePositionNaut miles runAvg speedWind from/ knotsBaromVisibWave heightAir tempDewpointWater temp
2018-May-20 03:03N 36°59' E 025°16'116.3
2018-May-20 03:01N 37°00' E 025°16'2 4.0
2018-May-20 02:30N 37°02' E 025°16'3 5.9
2018-May-20 02:00N 37°04' E 025°18'4 8.1
2018-May-20 01:30N 37°06' E 025°22'0 0.0
2018-May-20 01:00N 37°06' E 025°22'0 0.0
2018-May-20 00:31N 37°06' E 025°22'0 0.0
2018-May-20 00:01N 37°06' E 025°22'0 0.0
2018-May-19 23:31N 37°06' E 025°22'0 0.0
2018-May-19 23:00N 37°06' E 025°22'0 0.0
2018-May-19 22:30N 37°06' E 025°22'0 0.0
2018-May-19 22:00N 37°06' E 025°22'0 0.0
2018-May-19 21:31N 37°06' E 025°22'0 0.0
2018-May-19 21:00N 37°06' E 025°22'0 0.0
2018-May-19 20:31N 37°06' E 025°22'0 0.0
2018-May-19 20:00N 37°06' E 025°22'0 0.0
2018-May-19 19:31N 37°06' E 025°22'0 0.0
2018-May-19 19:00N 37°06' E 025°22'0 0.0
2018-May-19 18:30N 37°06' E 025°22'0 0.0
2018-May-19 18:01N 37°06' E 025°22'0 0.0
2018-May-19 17:30N 37°06' E 025°22'0 0.0
2018-May-19 17:00N 37°06' E 025°22'0 0.0
2018-May-19 16:30N 37°06' E 025°22'1 1.8
2018-May-19 16:00N 37°07' E 025°22'6 7.5
2018-May-19 15:13N 37°09' E 025°15'316.0
2018-May-19 15:00N 37°12' E 025°15'816.0
2018-May-19 14:31N 37°20' E 025°17'7 6.8
2018-May-19 13:27N 37°27' E 025°20'0 0.0
2018-May-19 12:16N 37°27' E 025°20'0 0.0
2018-May-19 11:44N 37°27' E 025°20'0 0.0
2018-May-19 11:19N 37°27' E 025°20'0 0.0
2018-May-19 10:52N 37°27' E 025°20'2 5.9
2018-May-19 10:30N 37°26' E 025°17'2 4.7
2018-May-19 09:59N 37°24' E 025°16'0 0.0
2018-May-19 09:30N 37°24' E 025°16'0 0.0
2018-May-19 09:00N 37°24' E 025°16'0 0.0
2018-May-19 08:30N 37°24' E 025°16'0 0.0
2018-May-19 08:00N 37°24' E 025°16'1 2.6
2018-May-19 07:30N 37°23' E 025°16'816.3
2018-May-19 07:00N 37°14' E 025°15'7 9.4
2018-May-19 06:17N 37°08' E 025°14'413.3
2018-May-19 06:00N 37°09' E 025°19'4 8.0
2018-May-19 05:30N 37°06' E 025°22'0 0.0
2018-May-19 05:00N 37°06' E 025°22'0 0.0
2018-May-19 04:30N 37°06' E 025°22'0 0.0
2018-May-19 04:00N 37°06' E 025°22'0 0.0
2018-May-19 03:30N 37°06' E 025°22'0 0.0
2018-May-19 03:00N 37°06' E 025°22'0 0.0
2018-May-19 02:30N 37°06' E 025°22'0 0.0
2018-May-19 02:00N 37°06' E 025°22'0 0.0
2018-May-19 01:30N 37°06' E 025°22'0 0.0
2018-May-19 01:00N 37°06' E 025°22'0 0.0
2018-May-19 00:30N 37°06' E 025°22'0 0.0
2018-May-19 00:00N 37°06' E 025°22'0 0.0
2018-May-18 23:30N 37°06' E 025°22'0 0.0
2018-May-18 23:00N 37°06' E 025°22'0 0.0
2018-May-18 22:30N 37°06' E 025°22'0 0.0
2018-May-18 22:00N 37°06' E 025°22'0 0.0
2018-May-18 21:30N 37°06' E 025°22'0 0.0
2018-May-18 21:00N 37°06' E 025°22'0 0.0
2018-May-18 20:30N 37°06' E 025°22'0 0.0
2018-May-18 20:00N 37°06' E 025°22'0 0.0
2018-May-18 19:30N 37°06' E 025°22'0 0.0
2018-May-18 19:00N 37°06' E 025°22'0 0.0
2018-May-18 18:30N 37°06' E 025°22'0 0.0
2018-May-18 18:00N 37°06' E 025°22'0 0.0
2018-May-18 17:30N 37°06' E 025°22'0 0.0
2018-May-18 17:00N 37°06' E 025°22'0 0.0
2018-May-18 16:30N 37°06' E 025°22'0 0.0
2018-May-18 16:00N 37°06' E 025°22'0 0.0
2018-May-18 15:30N 37°06' E 025°22'0 0.0
2018-May-18 15:00N 37°06' E 025°22'0 0.0
2018-May-18 14:30N 37°06' E 025°22'0 0.0
2018-May-18 14:00N 37°06' E 025°22'0 0.0
2018-May-18 13:30N 37°06' E 025°22'0 0.0
2018-May-18 13:00N 37°06' E 025°22'0 0.0
2018-May-18 12:30N 37°06' E 025°22'0 0.0
2018-May-18 12:00N 37°06' E 025°22'0 0.0
2018-May-18 11:30N 37°06' E 025°22'0 0.0
2018-May-18 11:00N 37°06' E 025°22'0 0.0
2018-May-18 10:30N 37°06' E 025°22'0 0.0
2018-May-18 10:00N 37°06' E 025°22'0 0.0
2018-May-18 09:30N 37°06' E 025°22'0 0.0
2018-May-18 09:00N 37°06' E 025°22'0 0.0
2018-May-18 08:30N 37°06' E 025°22'0 0.0
2018-May-18 08:00N 37°06' E 025°22'0 0.0
2018-May-18 07:30N 37°06' E 025°22'0 0.0
2018-May-18 07:00N 37°06' E 025°22'0 0.0
2018-May-18 06:30N 37°06' E 025°22'0 0.0
2018-May-18 06:00N 37°06' E 025°22'0 0.0
2018-May-18 05:30N 37°06' E 025°22'0 0.0
2018-May-18 05:00N 37°06' E 025°22'0 0.0
2018-May-18 04:30N 37°06' E 025°22'0 0.0
2018-May-18 04:00N 37°06' E 025°22'0 0.0
2018-May-18 03:30N 37°06' E 025°22'0 0.0
2018-May-18 03:00N 37°06' E 025°22'0 0.0
2018-May-18 02:30N 37°06' E 025°22'0 0.0
2018-May-18 02:00N 37°06' E 025°22'0 0.0
2018-May-18 01:30N 37°06' E 025°22'0 0.0
2018-May-18 01:00N 37°06' E 025°22'0 0.0
2018-May-18 00:30N 37°06' E 025°22'0 0.0
2018-May-18 00:00N 37°06' E 025°22'0 0.0
2018-May-17 23:30N 37°06' E 025°22'0 0.0
2018-May-17 23:00N 37°06' E 025°22'0 0.0
2018-May-17 22:30N 37°06' E 025°22'0 0.0
2018-May-17 22:00N 37°06' E 025°22'0 0.0
2018-May-17 21:30N 37°06' E 025°22'0 0.0
2018-May-17 21:00N 37°06' E 025°22'0 0.0
2018-May-17 20:30N 37°06' E 025°22'0 0.0
2018-May-17 20:00N 37°06' E 025°22'0 0.0
2018-May-17 19:30N 37°06' E 025°22'0 0.0
2018-May-17 19:00N 37°06' E 025°22'0 0.0
2018-May-17 18:30N 37°06' E 025°22'0 0.0
2018-May-17 18:00N 37°06' E 025°22'0 0.0
2018-May-17 17:30N 37°06' E 025°22'0 0.0
2018-May-17 17:00N 37°06' E 025°22'0 0.0
2018-May-17 16:30N 37°06' E 025°22'0 0.1
2018-May-17 16:00N 37°06' E 025°22'612.6
2018-May-17 15:30N 37°09' E 025°15'2 4.5
2018-May-17 15:00N 37°11' E 025°15'816.3
2018-May-17 14:30N 37°19' E 025°16'815.6
2018-May-17 13:59N 37°27' E 025°19'0 0.1
2018-May-17 10:41N 37°27' E 025°20'213.8
2018-May-17 10:30N 37°26' E 025°17'2 4.2
2018-May-17 10:00N 37°24' E 025°16'0 0.0
2018-May-17 09:30N 37°24' E 025°16'0 0.0
2018-May-17 09:00N 37°24' E 025°16'0 0.0
2018-May-17 08:30N 37°24' E 025°16'0 0.0
2018-May-17 08:00N 37°24' E 025°16'1 1.5
2018-May-17 07:30N 37°23' E 025°16'816.0
2018-May-17 07:00N 37°15' E 025°15'710.2
2018-May-17 06:16N 37°08' E 025°14'413.6
2018-May-17 06:00N 37°09' E 025°18'4 8.2
2018-May-17 05:30N 37°06' E 025°22'0 0.0
2018-May-17 05:01N 37°06' E 025°22'0 0.0
2018-May-17 04:31N 37°06' E 025°22'0 0.0
2018-May-17 04:01N 37°06' E 025°22'0 0.0
2018-May-17 03:30N 37°06' E 025°22'0 0.0
2018-May-17 03:01N 37°06' E 025°22'0 0.0
2018-May-17 02:30N 37°06' E 025°22'0 0.0
2018-May-17 02:01N 37°06' E 025°22'0 0.0
2018-May-17 01:31N 37°06' E 025°22'0 0.0
2018-May-17 01:00N 37°06' E 025°22'0 0.0
2018-May-17 00:31N 37°06' E 025°22'0 0.0
2018-May-17 00:00N 37°06' E 025°22'0 0.0
2018-May-16 23:31N 37°06' E 025°22'0 0.0
2018-May-16 23:00N 37°06' E 025°22'0 0.0
2018-May-16 22:31N 37°06' E 025°22'0 0.0
2018-May-16 22:01N 37°06' E 025°22'0 0.0
2018-May-16 21:31N 37°06' E 025°22'0 0.0
2018-May-16 21:00N 37°06' E 025°22'0 0.0
2018-May-16 20:31N 37°06' E 025°22'0 0.0
2018-May-16 20:00N 37°06' E 025°22'0 0.0
2018-May-16 19:30N 37°06' E 025°22'0 0.0
2018-May-16 19:00N 37°06' E 025°22'0 0.0
2018-May-16 18:31N 37°06' E 025°22'0 0.0
2018-May-16 18:00N 37°06' E 025°22'0 0.0
2018-May-16 17:31N 37°06' E 025°22'2 4.8
2018-May-16 17:00N 37°05' E 025°20'510.6
2018-May-16 16:30N 37°01' E 025°16'2 0.2
2018-May-16 05:18N 36°59' E 025°17'3 9.6
2018-May-16 05:00N 37°02' E 025°16'713.9
2018-May-16 04:30N 37°06' E 025°22'0 0.2
2018-May-16 04:00N 37°06' E 025°22'0 0.0
2018-May-16 03:30N 37°06' E 025°22'0 0.0
2018-May-16 03:00N 37°06' E 025°22'0 0.0
2018-May-16 02:30N 37°06' E 025°22'0 0.0
2018-May-16 02:00N 37°06' E 025°22'0 0.0
2018-May-16 01:30N 37°06' E 025°22'0 0.0
2018-May-16 01:00N 37°06' E 025°22'0 0.0
2018-May-16 00:30N 37°06' E 025°22'0 0.0
2018-May-16 00:00N 37°06' E 025°22'0 0.0
2018-May-15 23:30N 37°06' E 025°22'0 0.0
2018-May-15 23:00N 37°06' E 025°22'0 0.0
2018-May-15 22:30N 37°06' E 025°22'0 0.0
2018-May-15 22:00N 37°06' E 025°22'0 0.0
2018-May-15 21:30N 37°06' E 025°22'0 0.0
2018-May-15 21:00N 37°06' E 025°22'0 0.0
2018-May-15 20:30N 37°06' E 025°22'0 0.0
2018-May-15 20:00N 37°06' E 025°22'0 0.0
2018-May-15 19:30N 37°06' E 025°22'0 0.0
2018-May-15 19:00N 37°06' E 025°22'0 0.0
2018-May-15 18:30N 37°06' E 025°22'0 0.0
2018-May-15 18:00N 37°06' E 025°22'0 0.0
2018-May-15 17:30N 37°06' E 025°22'0 0.0
2018-May-15 17:00N 37°06' E 025°22'0 0.0
2018-May-15 16:30N 37°06' E 025°22'2 4.3
2018-May-15 16:00N 37°08' E 025°20'5 7.2
2018-May-15 15:20N 37°09' E 025°15'516.3
2018-May-15 15:00N 37°14' E 025°15'816.5
2018-May-15 14:30N 37°22' E 025°17'5 1.4
2018-May-15 10:47N 37°27' E 025°20'3 9.8
2018-May-15 10:30N 37°25' E 025°17'2 3.4
2018-May-15 10:00N 37°24' E 025°16'0 0.0
2018-May-15 09:29N 37°24' E 025°16'0 0.0
2018-May-15 09:00N 37°24' E 025°16'0 0.0
2018-May-15 08:30N 37°24' E 025°16'0 0.0
2018-May-15 07:59N 37°24' E 025°16'1 1.8
2018-May-15 07:31N 37°23' E 025°16'816.3
2018-May-15 07:01N 37°15' E 025°15'710.1
2018-May-15 06:18N 37°08' E 025°14'413.2
2018-May-15 06:00N 37°09' E 025°19'3 7.0
2018-May-15 05:31N 37°06' E 025°22'713.4
2018-May-15 05:00N 37°02' E 025°16'2 3.9
2018-May-15 04:30N 37°03' E 025°18'510.2
2018-May-15 04:00N 37°06' E 025°22'0 0.0
2018-May-15 03:30N 37°06' E 025°22'0 0.0
2018-May-15 03:00N 37°06' E 025°22'0 0.0
2018-May-15 02:30N 37°06' E 025°22'0 0.0
2018-May-15 02:00N 37°06' E 025°22'0 0.0
2018-May-15 01:30N 37°06' E 025°22'0 0.0
2018-May-15 01:00N 37°06' E 025°22'0 0.0
2018-May-15 00:30N 37°06' E 025°22'0 0.0
2018-May-15 00:00N 37°06' E 025°22'0 0.0
2018-May-14 23:30N 37°06' E 025°22'0 0.0
2018-May-14 23:00N 37°06' E 025°22'0 0.0
2018-May-14 22:30N 37°06' E 025°22'0 0.0
2018-May-14 22:00N 37°06' E 025°22'0 0.0
2018-May-14 21:30N 37°06' E 025°22'0 0.0
2018-May-14 21:00N 37°06' E 025°22'0 0.0
2018-May-14 20:30N 37°06' E 025°22'0 0.0
2018-May-14 20:00N 37°06' E 025°22'0 0.0
2018-May-14 19:30N 37°06' E 025°22'0 0.0
2018-May-14 19:00N 37°06' E 025°22'0 0.0
2018-May-14 18:30N 37°06' E 025°22'0 0.0
2018-May-14 18:00N 37°06' E 025°22'0 0.0
2018-May-14 17:30N 37°06' E 025°22'0 0.0
2018-May-14 17:00N 37°06' E 025°22'0 0.0
2018-May-14 16:30N 37°06' E 025°22'0 0.0
2018-May-14 16:00N 37°06' E 025°22'0 0.0
2018-May-14 15:30N 37°06' E 025°22'0 0.0
2018-May-14 15:00N 37°06' E 025°22'0 0.0
2018-May-14 14:30N 37°06' E 025°22'0 0.0
2018-May-14 14:00N 37°06' E 025°22'0 0.0
2018-May-14 13:30N 37°06' E 025°22'0 0.0
2018-May-14 13:00N 37°06' E 025°22'0 0.0
2018-May-14 12:30N 37°06' E 025°22'0 0.0
2018-May-14 12:00N 37°06' E 025°22'0 0.0
2018-May-14 11:30N 37°06' E 025°22'0 0.0
2018-May-14 11:00N 37°06' E 025°22'0 0.0
2018-May-14 10:30N 37°06' E 025°22'0 0.0
2018-May-14 10:00N 37°06' E 025°22'0 0.0
2018-May-14 09:30N 37°06' E 025°22'0 0.0
2018-May-14 09:00N 37°06' E 025°22'0 0.0
2018-May-14 08:30N 37°06' E 025°22'0 0.0
2018-May-14 08:00N 37°06' E 025°22'0 0.0
2018-May-14 07:30N 37°06' E 025°22'0 0.0
2018-May-14 07:00N 37°06' E 025°22'0 0.0
2018-May-14 06:30N 37°06' E 025°22'0 0.0
2018-May-14 06:00N 37°06' E 025°22'0 0.0
2018-May-14 05:30N 37°06' E 025°22'0 0.0
2018-May-14 05:00N 37°06' E 025°22'0 0.0
2018-May-14 04:30N 37°06' E 025°22'0 0.0
2018-May-14 04:00N 37°06' E 025°22'0 0.0
2018-May-14 03:30N 37°06' E 025°22'0 0.0
2018-May-14 03:00N 37°06' E 025°22'0 0.0
2018-May-14 02:30N 37°06' E 025°22'0 0.0
2018-May-14 02:00N 37°06' E 025°22'0 0.0
2018-May-14 01:30N 37°06' E 025°22'0 0.0
2018-May-14 01:00N 37°06' E 025°22'0 0.0
2018-May-14 00:30N 37°06' E 025°22'2 3.6
2018-May-14 00:00N 37°06' E 025°20'510.8
2018-May-13 23:31N 37°02' E 025°16'3 0.1
2018-May-13 03:10N 36°59' E 025°16'216.4
2018-May-13 03:01N 37°02' E 025°16'5 9.0
2018-May-13 02:30N 37°05' E 025°20'3 5.3
2018-May-13 02:00N 37°06' E 025°22'0 0.0
2018-May-13 01:30N 37°06' E 025°22'0 0.0
2018-May-13 01:00N 37°06' E 025°22'0 0.0
2018-May-13 00:30N 37°06' E 025°22'0 0.0
2018-May-13 00:00N 37°06' E 025°22'0 0.0
2018-May-12 23:30N 37°06' E 025°22'0 0.0
2018-May-12 23:00N 37°06' E 025°22'0 0.0
2018-May-12 22:30N 37°06' E 025°22'0 0.0
2018-May-12 22:00N 37°06' E 025°22'0 0.0
2018-May-12 21:30N 37°06' E 025°22'0 0.0
2018-May-12 21:00N 37°06' E 025°22'0 0.0
2018-May-12 20:30N 37°06' E 025°22'0 0.0
2018-May-12 20:00N 37°06' E 025°22'0 0.0
2018-May-12 19:30N 37°06' E 025°22'0 0.0
2018-May-12 19:00N 37°06' E 025°22'0 0.0
2018-May-12 18:30N 37°06' E 025°22'0 0.0
2018-May-12 18:00N 37°06' E 025°22'0 0.0
2018-May-12 17:30N 37°06' E 025°22'0 0.0
2018-May-12 17:00N 37°06' E 025°22'0 0.0
2018-May-12 16:30N 37°06' E 025°22'612.0
2018-May-12 16:00N 37°09' E 025°16'1 2.7
2018-May-12 15:30N 37°09' E 025°14'816.5
2018-May-12 15:00N 37°18' E 025°14'816.0
2018-May-12 14:30N 37°25' E 025°18'2 0.4
2018-May-12 07:54N 37°23' E 025°16'615.3
2018-May-12 07:29N 37°17' E 025°15'715.3
2018-May-12 07:00N 37°10' E 025°15'1 2.6
2018-May-12 06:30N 37°08' E 025°15'612.2
2018-May-12 06:01N 37°06' E 025°22'0 0.7
2018-May-12 05:31N 37°06' E 025°22'0 0.0
2018-May-12 05:01N 37°06' E 025°22'0 0.0
2018-May-12 04:31N 37°06' E 025°22'0 0.0
2018-May-12 04:01N 37°06' E 025°22'0 0.0
2018-May-12 03:30N 37°06' E 025°22'0 0.0
2018-May-12 03:01N 37°06' E 025°22'0 0.0
2018-May-12 02:30N 37°06' E 025°22'0 0.0
2018-May-12 02:00N 37°06' E 025°22'0 0.0
2018-May-12 01:30N 37°06' E 025°22'0 0.0
2018-May-12 01:00N 37°06' E 025°22'0 0.0
2018-May-12 00:30N 37°06' E 025°22'0 0.0
2018-May-12 00:00N 37°06' E 025°22'0 0.0
2018-May-11 23:31N 37°06' E 025°22'0 0.0
2018-May-11 23:00N 37°06' E 025°22'0 0.0
2018-May-11 22:29N 37°06' E 025°22'0 0.0
2018-May-11 22:01N 37°06' E 025°22'0 0.0
2018-May-11 21:30N 37°06' E 025°22'0 0.0
2018-May-11 21:01N 37°06' E 025°22'0 0.0
2018-May-11 20:31N 37°06' E 025°22'0 0.0
2018-May-11 20:00N 37°06' E 025°22'0 0.0
2018-May-11 19:31N 37°06' E 025°22'0 0.0
2018-May-11 19:01N 37°06' E 025°22'0 0.0
2018-May-11 18:31N 37°06' E 025°22'0 0.0
2018-May-11 18:00N 37°06' E 025°22'0 0.0
2018-May-11 17:31N 37°06' E 025°22'0 0.0
2018-May-11 17:00N 37°06' E 025°22'0 0.0
2018-May-11 16:30N 37°06' E 025°22'1 2.1
2018-May-11 16:00N 37°07' E 025°21'6 7.8
2018-May-11 15:17N 37°09' E 025°14'416.4
2018-May-11 15:00N 37°13' E 025°14'816.0
2018-May-11 14:30N 37°21' E 025°15'714.2
2018-May-11 14:00N 37°27' E 025°19'0 0.0
2018-May-11 10:14N 37°27' E 025°20'414.7
2018-May-11 09:58N 37°24' E 025°16'0 1.0
2018-May-11 09:30N 37°24' E 025°16'0 0.0
2018-May-11 09:00N 37°24' E 025°16'0 0.0
2018-May-11 08:30N 37°24' E 025°16'0 0.0
2018-May-11 08:00N 37°24' E 025°16'0 0.0
2018-May-11 07:31N 37°24' E 025°16'5 9.3
2018-May-11 07:01N 37°19' E 025°17'816.4
2018-May-11 06:31N 37°11' E 025°20'611.0
2018-May-11 06:00N 37°06' E 025°22'3 5.9
2018-May-11 05:30N 37°05' E 025°19'4 7.7
2018-May-11 04:58N 37°02' E 025°16'2 3.6
2018-May-11 04:31N 37°03' E 025°17'510.7
2018-May-11 04:00N 37°06' E 025°22'0 0.0
2018-May-11 03:30N 37°06' E 025°22'0 0.0
2018-May-11 03:00N 37°06' E 025°22'0 0.0
2018-May-11 02:30N 37°06' E 025°22'0 0.0
2018-May-11 02:00N 37°06' E 025°22'0 0.0
2018-May-11 01:30N 37°06' E 025°22'0 0.0
2018-May-11 01:00N 37°06' E 025°22'0 0.0
2018-May-11 00:30N 37°06' E 025°22'0 0.0
2018-May-11 00:00N 37°06' E 025°22'0 0.0
2018-May-10 23:30N 37°06' E 025°22'0 0.0
2018-May-10 23:00N 37°06' E 025°22'0 0.0
2018-May-10 22:30N 37°06' E 025°22'0 0.0
2018-May-10 22:00N 37°06' E 025°22'0 0.0
2018-May-10 21:30N 37°06' E 025°22'0 0.0
2018-May-10 21:00N 37°06' E 025°22'0 0.0
2018-May-10 20:30N 37°06' E 025°22'0 0.0
2018-May-10 20:00N 37°06' E 025°22'0 0.0
2018-May-10 19:30N 37°06' E 025°22'0 0.0
2018-May-10 19:00N 37°06' E 025°22'0 0.0
2018-May-10 18:15N 37°06' E 025°22'0 0.0
2018-May-10 18:00N 37°06' E 025°22'0 0.0
2018-May-10 17:30N 37°06' E 025°22'0 0.0
2018-May-10 17:00N 37°06' E 025°22'0 0.0
2018-May-10 16:30N 37°06' E 025°22'1 2.2
2018-May-10 16:01N 37°07' E 025°21'6 8.5
2018-May-10 15:20N 37°08' E 025°14'516.1
2018-May-10 15:00N 37°13' E 025°16'816.4
2018-May-10 14:30N 37°21' E 025°17'6 4.1
2018-May-10 12:56N 37°27' E 025°20'0 0.0
2018-May-10 11:50N 37°27' E 025°20'0 0.0
2018-May-10 10:53N 37°27' E 025°20'411.5
2018-May-10 10:30N 37°24' E 025°16'0 0.0
2018-May-10 10:00N 37°24' E 025°16'0 0.0
2018-May-10 09:28N 37°24' E 025°16'0 0.0
2018-May-10 09:00N 37°24' E 025°16'0 0.0
2018-May-10 08:30N 37°24' E 025°16'0 0.0
2018-May-10 08:00N 37°24' E 025°16'1 2.6
2018-May-10 07:30N 37°23' E 025°16'816.3
2018-May-10 07:00N 37°14' E 025°15'7 9.6
2018-May-10 06:18N 37°08' E 025°14'413.0
2018-May-10 06:00N 37°09' E 025°19'4 7.3
2018-May-10 05:30N 37°06' E 025°22'0 0.0
2018-May-10 05:00N 37°06' E 025°22'0 0.0
2018-May-10 04:30N 37°06' E 025°22'0 0.0
2018-May-10 04:00N 37°06' E 025°22'0 0.0
2018-May-10 03:30N 37°06' E 025°22'  

Dump ship's entire track history